createdAt,value
2016-08-27T00:00:03.329Z,0
2016-08-27T00:01:18.268Z,0
2016-08-27T00:02:04.101Z,0
2016-08-27T00:04:03.414Z,0
2016-08-27T00:05:18.382Z,0
2016-08-27T00:06:18.417Z,0
2016-08-27T00:07:03.507Z,0
2016-08-27T00:08:18.451Z,0
2016-08-27T00:09:03.549Z,0
2016-08-27T00:11:03.615Z,0
2016-08-27T00:14:03.679Z,0
2016-08-27T00:15:03.724Z,0
2016-08-27T00:16:03.747Z,0
2016-08-27T00:17:03.779Z,0
2016-08-27T00:18:03.804Z,0
2016-08-27T00:19:03.839Z,0
2016-08-27T00:20:03.938Z,0
2016-08-27T00:21:03.881Z,0
2016-08-27T00:22:18.845Z,0
2016-08-27T00:23:18.850Z,0
2016-08-27T00:24:03.965Z,0
2016-08-27T00:25:18.928Z,0
2016-08-27T00:27:04.046Z,0
2016-08-27T00:28:04.068Z,0
2016-08-27T00:29:04.791Z,0
2016-08-27T00:30:04.116Z,0
2016-08-27T00:31:04.158Z,0
2016-08-27T00:32:04.189Z,0
2016-08-27T00:33:04.220Z,0
2016-08-27T00:34:19.153Z,0
2016-08-27T00:35:04.257Z,0
2016-08-27T00:36:04.291Z,0
2016-08-27T00:37:04.334Z,0
2016-08-27T00:38:19.255Z,0
2016-08-27T00:39:04.373Z,0
2016-08-27T00:40:04.392Z,0
2016-08-27T00:42:04.485Z,0
2016-08-27T00:43:04.472Z,0
2016-08-27T00:44:04.515Z,0
2016-08-27T00:45:04.517Z,0
2016-08-27T00:46:04.549Z,0
2016-08-27T00:47:04.591Z,0
2016-08-27T00:48:04.603Z,0
2016-08-27T00:49:04.648Z,0
2016-08-27T00:50:04.659Z,0
2016-08-27T00:51:04.693Z,0
2016-08-27T00:52:04.766Z,0
2016-08-27T00:53:04.762Z,0
2016-08-27T00:54:19.700Z,0
2016-08-27T00:55:04.786Z,0
2016-08-27T00:56:04.824Z,0
2016-08-27T00:57:04.854Z,0
2016-08-27T00:58:04.895Z,0
2016-08-27T00:59:04.899Z,0
2016-08-27T01:00:04.928Z,0
2016-08-27T01:01:04.995Z,0
2016-08-27T01:02:04.979Z,0
2016-08-27T01:03:05.045Z,0
2016-08-27T01:04:05.043Z,0
2016-08-27T01:05:05.060Z,0
2016-08-27T01:06:20.013Z,0
2016-08-27T01:07:05.118Z,0
2016-08-27T01:08:05.138Z,0
2016-08-27T01:10:05.246Z,0
2016-08-27T01:12:05.244Z,0
2016-08-27T01:13:05.287Z,0
2016-08-27T01:14:05.989Z,0
2016-08-27T01:15:05.344Z,0
2016-08-27T01:16:05.367Z,0
2016-08-27T01:17:05.402Z,0
2016-08-27T01:18:05.428Z,0
2016-08-27T01:19:05.458Z,0
2016-08-27T01:20:05.470Z,0
2016-08-27T01:21:05.498Z,0
2016-08-27T01:22:05.537Z,0
2016-08-27T01:23:20.465Z,0
2016-08-27T01:24:05.608Z,0
2016-08-27T01:26:05.631Z,0
2016-08-27T01:27:05.654Z,0
2016-08-27T01:28:05.695Z,0
2016-08-27T01:29:05.703Z,0
2016-08-27T01:30:05.731Z,0
2016-08-27T01:31:05.750Z,0
2016-08-27T01:32:05.828Z,0
2016-08-27T01:33:05.827Z,0
2016-08-27T01:34:05.862Z,0
2016-08-27T01:35:05.865Z,0
2016-08-27T01:37:05.919Z,0
2016-08-27T01:39:05.994Z,0
2016-08-27T01:40:05.999Z,0
2016-08-27T01:41:20.959Z,0
2016-08-27T01:42:06.075Z,0
2016-08-27T01:43:06.089Z,0
2016-08-27T01:44:06.101Z,0
2016-08-27T01:45:06.131Z,0
2016-08-27T01:46:06.179Z,0
2016-08-27T01:47:06.203Z,0
2016-08-27T01:48:06.229Z,0
2016-08-27T01:49:06.290Z,0
2016-08-27T01:51:21.219Z,0
2016-08-27T01:52:06.368Z,0
2016-08-27T01:53:06.357Z,0
2016-08-27T01:54:06.389Z,0
2016-08-27T01:55:06.405Z,0
2016-08-27T01:56:06.450Z,0
2016-08-27T01:57:21.390Z,0
2016-08-27T01:58:06.496Z,0
2016-08-27T01:59:06.497Z,0
2016-08-27T02:00:06.548Z,0
2016-08-27T02:01:06.561Z,0
2016-08-27T02:02:06.599Z,0
2016-08-27T02:03:06.610Z,0
2016-08-27T02:04:06.668Z,0
2016-08-27T02:05:06.687Z,0
2016-08-27T02:06:06.705Z,0
2016-08-27T02:07:06.713Z,0
2016-08-27T02:08:06.745Z,0
2016-08-27T02:09:06.779Z,0
2016-08-27T02:10:21.723Z,0
2016-08-27T02:11:06.829Z,0
2016-08-27T02:12:06.843Z,0
2016-08-27T02:13:21.825Z,0
2016-08-27T02:14:21.823Z,0
2016-08-27T02:15:06.930Z,0
2016-08-27T02:16:21.898Z,0
2016-08-27T02:17:06.980Z,0
2016-08-27T02:18:07.033Z,0
2016-08-27T02:19:21.976Z,0
2016-08-27T02:20:22.005Z,0
2016-08-27T02:22:07.851Z,0
2016-08-27T02:23:22.065Z,0
2016-08-27T02:24:07.159Z,0
2016-08-27T02:25:07.196Z,0
2016-08-27T02:26:07.240Z,0
2016-08-27T02:27:07.247Z,0
2016-08-27T02:28:07.303Z,0
2016-08-27T02:29:22.240Z,0
2016-08-27T02:30:07.330Z,0
2016-08-27T02:31:07.363Z,0
2016-08-27T02:32:07.382Z,0
2016-08-27T02:33:07.410Z,0
2016-08-27T02:34:07.435Z,0
2016-08-27T02:35:22.387Z,0
2016-08-27T02:36:07.549Z,0
2016-08-27T02:38:07.542Z,0
2016-08-27T02:39:22.503Z,0
2016-08-27T02:40:07.583Z,0
2016-08-27T02:41:07.621Z,0
2016-08-27T02:42:07.656Z,0
2016-08-27T02:44:22.618Z,0
2016-08-27T02:45:22.639Z,0
2016-08-27T02:46:07.771Z,0
2016-08-27T02:47:07.771Z,0
2016-08-27T02:48:22.732Z,0
2016-08-27T02:49:07.838Z,0
2016-08-27T02:50:07.861Z,0
2016-08-27T02:51:07.894Z,0
2016-08-27T02:52:08.001Z,0
2016-08-27T02:53:07.944Z,0
2016-08-27T02:54:07.950Z,0
2016-08-27T02:55:08.001Z,0
2016-08-27T02:56:08.032Z,0
2016-08-27T02:57:08.033Z,0
2016-08-27T02:58:08.072Z,0
2016-08-27T02:59:08.095Z,0
2016-08-27T03:00:23.036Z,0
2016-08-27T03:02:08.175Z,0
2016-08-27T03:04:08.230Z,0
2016-08-27T03:05:08.250Z,0
2016-08-27T03:06:08.274Z,0
2016-08-27T03:07:08.301Z,0
2016-08-27T03:08:08.325Z,0
2016-08-27T03:09:08.391Z,0
2016-08-27T03:10:08.372Z,0
2016-08-27T03:11:08.431Z,0
2016-08-27T03:12:08.441Z,0
2016-08-27T03:13:23.378Z,0
2016-08-27T03:14:08.516Z,0
2016-08-27T03:15:08.512Z,0
2016-08-27T03:16:23.477Z,0
2016-08-27T03:17:08.575Z,0
2016-08-27T03:18:23.510Z,0
2016-08-27T03:19:08.620Z,0
2016-08-27T03:20:08.685Z,0
2016-08-27T03:21:08.671Z,0
2016-08-27T03:23:08.718Z,0
2016-08-27T03:24:08.772Z,0
2016-08-27T03:25:08.766Z,0
2016-08-27T03:26:08.796Z,0
2016-08-27T03:27:08.834Z,0
2016-08-27T03:28:08.859Z,4
2016-08-27T03:29:08.876Z,4
2016-08-27T03:30:08.904Z,0
2016-08-27T03:31:08.930Z,0
2016-08-27T03:32:23.888Z,4
2016-08-27T03:33:08.987Z,4
2016-08-27T03:35:09.048Z,4
2016-08-27T03:36:09.064Z,4
2016-08-27T03:37:09.135Z,4
2016-08-27T03:38:09.122Z,8
2016-08-27T03:39:09.179Z,8
2016-08-27T03:40:09.192Z,12
2016-08-27T03:41:09.209Z,12
2016-08-27T03:42:09.232Z,12
2016-08-27T03:43:09.255Z,12
2016-08-27T03:44:09.278Z,16
2016-08-27T03:45:09.311Z,24
2016-08-27T03:46:09.327Z,28
2016-08-27T03:47:09.368Z,28
2016-08-27T03:48:24.305Z,40
2016-08-27T03:49:09.423Z,44
2016-08-27T03:50:09.436Z,48
2016-08-27T03:51:09.459Z,56
2016-08-27T03:52:24.472Z,64
2016-08-27T03:53:09.513Z,72
2016-08-27T03:54:09.559Z,80
2016-08-27T03:55:09.617Z,92
2016-08-27T03:56:09.612Z,104
2016-08-27T03:57:09.621Z,116
2016-08-27T03:58:09.643Z,128
2016-08-27T03:59:09.715Z,144
2016-08-27T04:00:24.620Z,164
2016-08-27T04:01:09.729Z,176
2016-08-27T04:02:09.769Z,196
2016-08-27T04:03:09.777Z,216
2016-08-27T04:04:24.712Z,240
2016-08-27T04:05:24.737Z,260
2016-08-27T04:06:09.847Z,280
2016-08-27T04:07:09.871Z,304
2016-08-27T04:08:09.916Z,328
2016-08-27T04:09:09.952Z,352
2016-08-27T04:11:09.997Z,412
2016-08-27T04:12:10.703Z,444
2016-08-27T04:13:10.057Z,480
2016-08-27T04:14:10.046Z,516
2016-08-27T04:15:10.098Z,548
2016-08-27T04:16:10.108Z,588
2016-08-27T04:18:25.096Z,680
2016-08-27T04:19:25.809Z,728
2016-08-27T04:20:10.234Z,764
2016-08-27T04:21:10.258Z,816
2016-08-27T04:22:25.180Z,876
2016-08-27T04:23:10.291Z,916
2016-08-27T04:24:10.326Z,972
2016-08-27T04:25:10.359Z,1024
2016-08-27T04:26:10.381Z,1084
2016-08-27T04:27:10.389Z,1140
2016-08-27T04:29:10.450Z,1264
2016-08-27T04:30:10.472Z,1328
2016-08-27T04:31:10.517Z,1396
2016-08-27T04:32:10.519Z,1460
2016-08-27T04:33:10.581Z,1528
2016-08-27T04:34:10.592Z,1600
2016-08-27T04:35:10.631Z,1676
2016-08-27T04:36:10.632Z,1752
2016-08-27T04:37:10.664Z,1828
2016-08-27T04:38:10.694Z,1908
2016-08-27T04:39:10.702Z,1988
2016-08-27T04:40:10.741Z,2080
2016-08-27T04:41:10.837Z,2168
2016-08-27T04:42:10.800Z,2268
2016-08-27T04:43:10.834Z,2604
2016-08-27T04:44:10.834Z,3128
2016-08-27T04:45:10.871Z,3480
2016-08-27T04:46:10.889Z,4180
2016-08-27T04:47:10.922Z,9032
2016-08-27T04:48:10.946Z,14144
2016-08-27T04:49:10.986Z,17504
2016-08-27T04:50:10.998Z,19360
2016-08-27T04:51:25.934Z,20128
2016-08-27T04:52:11.062Z,20192
2016-08-27T04:53:11.066Z,20128
2016-08-27T04:54:11.108Z,20352
2016-08-27T04:55:11.190Z,21920
2016-08-27T04:56:11.179Z,23744
2016-08-27T04:57:11.193Z,24384
2016-08-27T04:58:26.143Z,24672
2016-08-27T04:59:11.245Z,25248
2016-08-27T05:00:11.264Z,25984
2016-08-27T05:01:11.300Z,26720
2016-08-27T05:02:11.342Z,26848
2016-08-27T05:03:11.348Z,27264
2016-08-27T05:04:11.434Z,27872
2016-08-27T05:05:11.400Z,29536
2016-08-27T05:06:11.455Z,30336
2016-08-27T05:07:26.391Z,29600
2016-08-27T05:08:11.513Z,28640
2016-08-27T05:09:11.524Z,29024
2016-08-27T05:10:11.558Z,31104
2016-08-27T05:11:11.585Z,31296
2016-08-27T05:12:11.623Z,31104
2016-08-27T05:13:11.640Z,29152
2016-08-27T05:14:11.683Z,24992
2016-08-27T05:15:11.720Z,25120
2016-08-27T05:16:11.733Z,25312
2016-08-27T05:17:11.792Z,16096
2016-08-27T05:18:11.801Z,17024
2016-08-27T05:19:11.856Z,15616
2016-08-27T05:20:11.892Z,9040
2016-08-27T05:21:11.917Z,6392
2016-08-27T05:24:11.978Z,8408
2016-08-27T05:25:12.024Z,12260
2016-08-27T05:26:12.072Z,11588
2016-08-27T05:27:27.013Z,7396
2016-08-27T05:28:12.107Z,6736
2016-08-27T05:29:12.137Z,7392
2016-08-27T05:30:12.199Z,7408
2016-08-27T05:31:12.205Z,7316
2016-08-27T05:32:12.248Z,7284
2016-08-27T05:34:12.296Z,8908
2016-08-27T05:35:12.312Z,7112
2016-08-27T05:36:12.368Z,7040
2016-08-27T05:37:12.401Z,10552
2016-08-27T05:38:12.430Z,16128
2016-08-27T05:39:27.359Z,29856
2016-08-27T05:40:12.479Z,37568
2016-08-27T05:41:12.492Z,44032
2016-08-27T05:42:12.581Z,43584
2016-08-27T05:43:27.487Z,27264
2016-08-27T05:44:12.593Z,18336
2016-08-27T05:45:12.612Z,18016
2016-08-27T05:46:12.643Z,17856
2016-08-27T05:47:12.664Z,38016
2016-08-27T05:48:12.704Z,39520
2016-08-27T05:49:12.754Z,34016
2016-08-27T05:50:12.775Z,45504
2016-08-27T05:51:12.813Z,51008
2016-08-27T05:52:12.826Z,50944
2016-08-27T05:53:12.856Z,51904
2016-08-27T05:54:27.831Z,52864
2016-08-27T05:55:12.924Z,52608
2016-08-27T05:56:13.006Z,51712
2016-08-27T05:57:12.989Z,50944
2016-08-27T05:58:13.010Z,52864
2016-08-27T06:00:13.093Z,54432
2016-08-27T06:01:13.118Z,54912
2016-08-27T06:02:13.157Z,55808
2016-08-27T06:03:13.177Z,56480
2016-08-27T06:04:13.221Z,56608
2016-08-27T06:06:13.292Z,57120
2016-08-27T06:07:13.310Z,56896
2016-08-27T06:09:13.384Z,54656
2016-08-27T06:10:13.420Z,55392
2016-08-27T06:11:13.459Z,57824
2016-08-27T06:12:28.412Z,58816
2016-08-27T06:13:13.517Z,59392
2016-08-27T06:14:13.563Z,56384
2016-08-27T06:15:13.583Z,59456
2016-08-27T06:16:28.562Z,59392
2016-08-27T06:17:13.670Z,62368
2016-08-27T06:18:13.712Z,63008
2016-08-27T06:19:13.728Z,63680
2016-08-27T06:20:13.773Z,64000
2016-08-27T06:21:13.803Z,65760
2016-08-27T06:22:13.845Z,66272
2016-08-27T06:23:13.866Z,64832
2016-08-27T06:24:13.930Z,66496
2016-08-27T06:25:13.948Z,67168
2016-08-27T06:26:28.932Z,67360
2016-08-27T06:27:14.029Z,68512
2016-08-27T06:28:14.035Z,68704
2016-08-27T06:29:14.078Z,69216
2016-08-27T06:30:14.120Z,69056
2016-08-27T06:31:14.189Z,66464
2016-08-27T06:32:14.197Z,68896
2016-08-27T06:33:14.247Z,69920
2016-08-27T06:34:14.261Z,65600
2016-08-27T06:35:14.287Z,67968
2016-08-27T06:36:14.327Z,72352
2016-08-27T06:37:14.386Z,70624
2016-08-27T06:38:14.411Z,68096
2016-08-27T06:39:14.458Z,70080
2016-08-27T06:40:15.166Z,69504
2016-08-27T06:42:29.475Z,70144
2016-08-27T06:43:14.581Z,70688
2016-08-27T06:44:14.646Z,70304
2016-08-27T06:45:14.709Z,70880
2016-08-27T06:46:14.719Z,71968
2016-08-27T06:47:29.664Z,73312
2016-08-27T06:48:14.767Z,72672
2016-08-27T06:49:14.795Z,69824
2016-08-27T06:50:14.846Z,70144
2016-08-27T06:51:14.884Z,72480
2016-08-27T06:52:14.911Z,72256
2016-08-27T06:53:14.948Z,73152
2016-08-27T06:54:15.021Z,73088
2016-08-27T06:55:15.032Z,72704
2016-08-27T06:56:15.070Z,74016
2016-08-27T06:57:15.806Z,74336
2016-08-27T06:58:30.061Z,69984
2016-08-27T06:59:15.172Z,69952
2016-08-27T07:00:15.219Z,71904
2016-08-27T07:01:30.174Z,73536
2016-08-27T07:02:15.295Z,72928
2016-08-27T07:03:15.311Z,69952
2016-08-27T07:04:15.352Z,70304
2016-08-27T07:05:15.400Z,66624
2016-08-27T07:06:15.417Z,64448
2016-08-27T07:07:15.463Z,67744
2016-08-27T07:08:15.491Z,68576
2016-08-27T07:09:15.553Z,67776
2016-08-27T07:10:15.600Z,66816
2016-08-27T07:11:15.653Z,68544
2016-08-27T07:12:15.634Z,68544
2016-08-27T07:13:15.676Z,67488
2016-08-27T07:14:30.662Z,71520
2016-08-27T07:15:16.451Z,69120
2016-08-27T07:16:15.814Z,65920
2016-08-27T07:17:30.743Z,68416
2016-08-27T07:18:30.864Z,67744
2016-08-27T07:19:15.893Z,67488
2016-08-27T07:20:15.963Z,70176
2016-08-27T07:21:15.987Z,68896
2016-08-27T07:22:16.034Z,66816
2016-08-27T07:23:16.042Z,66816
2016-08-27T07:25:16.138Z,68288
2016-08-27T07:26:16.150Z,67232
2016-08-27T07:27:16.207Z,65568
2016-08-27T07:28:16.228Z,65440
2016-08-27T07:29:31.196Z,63552
2016-08-27T07:30:16.302Z,59584
2016-08-27T07:31:16.356Z,57728
2016-08-27T07:32:16.368Z,60128
2016-08-27T07:33:16.406Z,61792
2016-08-27T07:34:16.460Z,62720
2016-08-27T07:35:16.486Z,63072
2016-08-27T07:36:16.533Z,63136
2016-08-27T07:37:16.552Z,60640
2016-08-27T07:38:16.612Z,58944
2016-08-27T07:39:16.638Z,60736
2016-08-27T07:40:16.670Z,62784
2016-08-27T07:42:17.455Z,59296
2016-08-27T07:43:16.770Z,57248
2016-08-27T07:46:31.808Z,57472
2016-08-27T07:47:16.917Z,57920
2016-08-27T07:48:16.961Z,58752
2016-08-27T07:49:31.943Z,56704
2016-08-27T07:50:17.028Z,55776
2016-08-27T07:51:32.023Z,55872
2016-08-27T07:52:17.112Z,54400
2016-08-27T07:53:17.141Z,54464
2016-08-27T07:54:32.129Z,52384
2016-08-27T07:55:32.144Z,54240
2016-08-27T07:56:17.256Z,56800
2016-08-27T07:57:17.290Z,56224
2016-08-27T07:58:17.323Z,56736
2016-08-27T07:59:17.386Z,54880
2016-08-27T08:00:17.447Z,55200
2016-08-27T08:01:32.370Z,54752
2016-08-27T08:02:17.468Z,52192
2016-08-27T08:03:17.508Z,51296
2016-08-27T08:04:17.554Z,49856
2016-08-27T08:05:17.604Z,49280
2016-08-27T08:06:17.611Z,50976
2016-08-27T08:07:17.659Z,51072
2016-08-27T08:08:17.698Z,50016
2016-08-27T08:09:17.722Z,51264
2016-08-27T08:10:17.797Z,49088
2016-08-27T08:11:17.806Z,48672
2016-08-27T08:12:17.892Z,48864
2016-08-27T08:13:32.808Z,48160
2016-08-27T08:14:17.928Z,45632
2016-08-27T08:15:17.961Z,45472
2016-08-27T08:16:17.992Z,45376
2016-08-27T08:17:32.941Z,43360
2016-08-27T08:20:18.180Z,44928
2016-08-27T08:21:33.099Z,45056
2016-08-27T08:22:18.208Z,42752
2016-08-27T08:23:18.255Z,43104
2016-08-27T08:24:18.281Z,41056
2016-08-27T08:26:18.344Z,41632
2016-08-27T08:27:18.386Z,39936
2016-08-27T08:28:18.414Z,33344
2016-08-27T08:29:18.471Z,23712
2016-08-27T08:30:18.495Z,20512
2016-08-27T08:31:18.535Z,20000
2016-08-27T08:32:18.571Z,19840
2016-08-27T08:33:33.529Z,19552
2016-08-27T08:34:33.566Z,19424
2016-08-27T08:35:33.590Z,19424
2016-08-27T08:37:33.676Z,19136
2016-08-27T08:38:18.792Z,19200
2016-08-27T08:39:18.833Z,19040
2016-08-27T08:40:18.851Z,18944
2016-08-27T08:41:18.899Z,18912
2016-08-27T08:42:18.914Z,18784
2016-08-27T08:43:18.971Z,18752
2016-08-27T08:44:18.997Z,18656
2016-08-27T08:45:19.048Z,18560
2016-08-27T08:46:19.079Z,18528
2016-08-27T08:48:19.151Z,18432
2016-08-27T08:49:34.133Z,18336
2016-08-27T08:50:19.211Z,18272
2016-08-27T08:51:19.245Z,18176
2016-08-27T08:52:19.286Z,18144
2016-08-27T08:53:34.253Z,18048
2016-08-27T08:54:19.368Z,18080
2016-08-27T08:55:19.388Z,18016
2016-08-27T08:56:34.362Z,17856
2016-08-27T08:57:19.459Z,17824
2016-08-27T08:59:19.549Z,17792
2016-08-27T09:00:19.596Z,17728
2016-08-27T09:01:19.642Z,17632
2016-08-27T09:02:19.690Z,17408
2016-08-27T09:03:19.694Z,17332
2016-08-27T09:04:34.635Z,17284
2016-08-27T09:05:34.670Z,17132
2016-08-27T09:06:19.800Z,17128
2016-08-27T09:07:19.835Z,17016
2016-08-27T09:08:19.854Z,17000
2016-08-27T09:09:19.896Z,16944
2016-08-27T09:10:19.923Z,16932
2016-08-27T09:12:20.010Z,16792
2016-08-27T09:13:20.043Z,16672
2016-08-27T09:14:20.062Z,16632
2016-08-27T09:15:20.109Z,16564
2016-08-27T09:16:20.137Z,16472
2016-08-27T09:17:20.184Z,16424
2016-08-27T09:18:20.295Z,16372
2016-08-27T09:19:20.248Z,16316
2016-08-27T09:20:20.353Z,16240
2016-08-27T09:21:20.317Z,16160
2016-08-27T09:22:20.390Z,16060
2016-08-27T09:23:35.312Z,15956
2016-08-27T09:24:35.380Z,15888
2016-08-27T09:25:20.459Z,15816
2016-08-27T09:26:20.516Z,15760
2016-08-27T09:27:20.531Z,15704
2016-08-27T09:28:20.573Z,15656
2016-08-27T09:29:20.616Z,15556
2016-08-27T09:30:20.634Z,15524
2016-08-27T09:32:20.708Z,15316
2016-08-27T09:33:20.768Z,15284
2016-08-27T09:34:20.779Z,15228
2016-08-27T09:35:20.810Z,15172
2016-08-27T09:36:35.789Z,15196
2016-08-27T09:37:20.908Z,15108
2016-08-27T09:39:20.973Z,14848
2016-08-27T09:40:21.011Z,14828
2016-08-27T09:41:21.031Z,14756
2016-08-27T09:42:21.080Z,14664
2016-08-27T09:43:21.125Z,14592
2016-08-27T09:44:21.137Z,14576
2016-08-27T09:45:21.182Z,14476
2016-08-27T09:46:21.214Z,14444
2016-08-27T09:47:21.283Z,14340
2016-08-27T09:48:21.297Z,14316
2016-08-27T09:50:36.276Z,14176
2016-08-27T09:51:21.413Z,14164
2016-08-27T09:52:36.359Z,14076
2016-08-27T09:53:21.451Z,14024
2016-08-27T09:54:21.489Z,13984
2016-08-27T09:55:21.528Z,13956
2016-08-27T09:56:36.497Z,13892
2016-08-27T09:57:21.595Z,13872
2016-08-27T09:59:21.666Z,13804
2016-08-27T10:00:21.696Z,13708
2016-08-27T10:01:21.744Z,13648
2016-08-27T10:02:36.719Z,13648
2016-08-27T10:03:21.813Z,13576
2016-08-27T10:04:21.855Z,13568
2016-08-27T10:05:21.884Z,13480
2016-08-27T10:07:21.957Z,13324
2016-08-27T10:08:36.918Z,13292
2016-08-27T10:09:22.048Z,13236
2016-08-27T10:10:22.062Z,13184
2016-08-27T10:11:22.108Z,13096
2016-08-27T10:12:22.126Z,13060
2016-08-27T10:14:22.195Z,12992
2016-08-27T10:15:22.254Z,12884
2016-08-27T10:16:37.217Z,12812
2016-08-27T10:17:37.233Z,12752
2016-08-27T10:18:22.385Z,12736
2016-08-27T10:19:37.302Z,12640
2016-08-27T10:20:22.427Z,12592
2016-08-27T10:21:37.428Z,12472
2016-08-27T10:22:22.549Z,12420
2016-08-27T10:23:22.537Z,12352
2016-08-27T10:24:37.469Z,12300
2016-08-27T10:25:22.606Z,12220
2016-08-27T10:26:22.628Z,12168
2016-08-27T10:27:22.662Z,12148
2016-08-27T10:28:22.692Z,12108
2016-08-27T10:29:22.744Z,12044
2016-08-27T10:30:22.750Z,12028
2016-08-27T10:31:22.799Z,11968
2016-08-27T10:32:22.850Z,11916
2016-08-27T10:33:22.896Z,11808
2016-08-27T10:34:37.835Z,11660
2016-08-27T10:36:22.969Z,11620
2016-08-27T10:37:23.019Z,11544
2016-08-27T10:38:23.045Z,11460
2016-08-27T10:39:38.027Z,11360
2016-08-27T10:40:23.140Z,11316
2016-08-27T10:41:23.150Z,11268
2016-08-27T10:42:38.113Z,11192
2016-08-27T10:43:23.208Z,11132
2016-08-27T10:44:23.260Z,11088
2016-08-27T10:45:38.216Z,10980
2016-08-27T10:46:23.355Z,10968
2016-08-27T10:47:23.366Z,10924
2016-08-27T10:48:23.392Z,10872
2016-08-27T10:51:23.501Z,10712
2016-08-27T10:52:23.525Z,10632
2016-08-27T10:54:23.619Z,10228
2016-08-27T10:55:38.545Z,9848
2016-08-27T10:56:23.664Z,9648
2016-08-27T10:57:23.710Z,9380
2016-08-27T10:58:23.741Z,9116
2016-08-27T10:59:23.763Z,8896
2016-08-27T11:00:23.786Z,8692
2016-08-27T11:01:23.825Z,8488
2016-08-27T11:03:23.901Z,8132
2016-08-27T11:04:24.673Z,7956
2016-08-27T11:05:23.970Z,7788
2016-08-27T11:06:24.006Z,7632
2016-08-27T11:07:24.038Z,7480
2016-08-27T11:08:24.071Z,7320
2016-08-27T11:09:24.115Z,7180
2016-08-27T11:10:24.143Z,7056
2016-08-27T11:11:39.100Z,6916
2016-08-27T11:12:39.124Z,6804
2016-08-27T11:13:24.249Z,6728
2016-08-27T11:15:39.240Z,6492
2016-08-27T11:16:24.341Z,6424
2016-08-27T11:17:24.380Z,6348
2016-08-27T11:18:39.332Z,6256
2016-08-27T11:19:24.457Z,6204
2016-08-27T11:20:24.492Z,6132
2016-08-27T11:21:24.501Z,6076
2016-08-27T11:22:24.680Z,6036
2016-08-27T11:23:39.496Z,5980
2016-08-27T11:24:40.237Z,5940
2016-08-27T11:25:24.637Z,5916
2016-08-27T11:26:24.725Z,5876
2016-08-27T11:28:24.745Z,5808
2016-08-27T11:29:24.781Z,5776
2016-08-27T11:30:24.816Z,5740
2016-08-27T11:31:25.531Z,5720
2016-08-27T11:32:24.874Z,5692
2016-08-27T11:33:24.909Z,5664
2016-08-27T11:34:24.980Z,5648
2016-08-27T11:35:39.916Z,5612
2016-08-27T11:36:25.005Z,5588
2016-08-27T11:37:25.043Z,5556
2016-08-27T11:38:25.072Z,5552
2016-08-27T11:39:25.116Z,5528
2016-08-27T11:40:25.156Z,5508
2016-08-27T11:41:25.196Z,5492
2016-08-27T11:43:40.162Z,5468
2016-08-27T11:45:25.302Z,5464
2016-08-27T11:46:25.331Z,5456
2016-08-27T11:47:40.312Z,5448
2016-08-27T11:48:25.399Z,5444
2016-08-27T11:49:25.445Z,5444
2016-08-27T11:50:25.477Z,5440
2016-08-27T11:51:25.532Z,5444
2016-08-27T11:52:25.546Z,5452
2016-08-27T11:53:25.576Z,5476
2016-08-27T11:54:25.612Z,5488
2016-08-27T11:55:40.568Z,5484
2016-08-27T11:56:25.690Z,5488
2016-08-27T11:57:25.703Z,5488
2016-08-27T11:58:25.765Z,5488
2016-08-27T11:59:40.712Z,5492
2016-08-27T12:00:25.822Z,5488
2016-08-27T12:01:25.843Z,5484
2016-08-27T12:03:25.911Z,5480
2016-08-27T12:04:25.935Z,5476
2016-08-27T12:05:25.961Z,5476
2016-08-27T12:06:26.015Z,5480
2016-08-27T12:07:26.042Z,5480
2016-08-27T12:08:26.063Z,5476
2016-08-27T12:09:26.108Z,5472
2016-08-27T12:10:26.143Z,5476
2016-08-27T12:11:26.196Z,5468
2016-08-27T12:12:26.230Z,5468
2016-08-27T12:13:26.240Z,5484
2016-08-27T12:14:41.208Z,5496
2016-08-27T12:16:26.343Z,5508
2016-08-27T12:17:26.381Z,5508
2016-08-27T12:18:26.409Z,5512
2016-08-27T12:19:26.444Z,5508
2016-08-27T12:20:26.487Z,5516
2016-08-27T12:22:26.611Z,5524
2016-08-27T12:23:26.573Z,5540
2016-08-27T12:24:26.639Z,5552
2016-08-27T12:25:27.392Z,5556
2016-08-27T12:27:26.750Z,5580
2016-08-27T12:28:26.754Z,5584
2016-08-27T12:29:26.793Z,5576
2016-08-27T12:30:26.858Z,5572
2016-08-27T12:31:26.832Z,5572
2016-08-27T12:32:26.868Z,5576
2016-08-27T12:33:41.847Z,5572
2016-08-27T12:34:26.944Z,5568
2016-08-27T12:35:26.983Z,5560
2016-08-27T12:36:27.003Z,5556
2016-08-27T12:37:27.068Z,5552
2016-08-27T12:38:27.065Z,5536
2016-08-27T12:39:27.102Z,5516
2016-08-27T12:41:27.187Z,5540
2016-08-27T12:42:27.210Z,5548
2016-08-27T12:43:42.161Z,5536
2016-08-27T12:44:27.285Z,5536
2016-08-27T12:45:27.306Z,5540
2016-08-27T12:46:42.281Z,5552
2016-08-27T12:47:27.382Z,5552
2016-08-27T12:49:27.430Z,5548
2016-08-27T12:50:27.476Z,5548
2016-08-27T12:51:27.508Z,5548
2016-08-27T12:52:27.556Z,5548
2016-08-27T12:53:27.569Z,5536
2016-08-27T12:54:27.611Z,5532
2016-08-27T12:55:27.629Z,5540
2016-08-27T12:56:27.697Z,5552
2016-08-27T12:58:27.741Z,5556
2016-08-27T12:59:27.781Z,5560
2016-08-27T13:00:27.796Z,5564
2016-08-27T13:02:42.789Z,5572
2016-08-27T13:03:27.904Z,5584
2016-08-27T13:05:28.000Z,5604
2016-08-27T13:06:27.996Z,5604
2016-08-27T13:07:28.038Z,5600
2016-08-27T13:08:28.087Z,5600
2016-08-27T13:09:28.094Z,5600
2016-08-27T13:10:28.127Z,5604
2016-08-27T13:11:28.164Z,5604
2016-08-27T13:12:28.219Z,5604
2016-08-27T13:13:43.160Z,5616
2016-08-27T13:14:28.278Z,5604
2016-08-27T13:15:28.308Z,5608
2016-08-27T13:16:28.338Z,5608
2016-08-27T13:17:28.362Z,5612
2016-08-27T13:18:43.327Z,5616
2016-08-27T13:19:43.359Z,5628
2016-08-27T13:20:28.459Z,5636
2016-08-27T13:21:28.517Z,5624
2016-08-27T13:22:28.588Z,5620
2016-08-27T13:23:28.587Z,5620
2016-08-27T13:24:28.599Z,5620
2016-08-27T13:25:28.639Z,5612
2016-08-27T13:27:28.703Z,5624
2016-08-27T13:28:28.804Z,5620
2016-08-27T13:29:29.455Z,5612
2016-08-27T13:30:43.725Z,5604
2016-08-27T13:31:43.765Z,5604
2016-08-27T13:32:28.878Z,5600
2016-08-27T13:34:43.875Z,5584
2016-08-27T13:35:43.881Z,5576
2016-08-27T13:36:29.001Z,5588
2016-08-27T13:37:29.028Z,5592
2016-08-27T13:38:29.071Z,5584
2016-08-27T13:39:29.088Z,5584
2016-08-27T13:40:29.155Z,5568
2016-08-27T13:41:29.175Z,5556
2016-08-27T13:42:29.193Z,5544
2016-08-27T13:43:29.246Z,5536
2016-08-27T13:44:29.278Z,5536
2016-08-27T13:45:29.290Z,5536
2016-08-27T13:47:29.354Z,5532
2016-08-27T13:48:29.397Z,5520
2016-08-27T13:49:44.367Z,5520
2016-08-27T13:50:44.396Z,5524
2016-08-27T13:51:29.496Z,5520
2016-08-27T13:52:29.524Z,5528
2016-08-27T13:53:29.567Z,5516
2016-08-27T13:55:29.648Z,5504
2016-08-27T13:56:30.354Z,5516
2016-08-27T13:57:29.721Z,5508
2016-08-27T13:58:29.719Z,5496
2016-08-27T13:59:29.775Z,5488
2016-08-27T14:00:29.789Z,5484
2016-08-27T14:01:29.822Z,5484
2016-08-27T14:02:29.869Z,5484
2016-08-27T14:03:29.893Z,5480
2016-08-27T14:04:29.944Z,5472
2016-08-27T14:05:44.882Z,5468
2016-08-27T14:06:29.979Z,5468
2016-08-27T14:07:30.023Z,5464
2016-08-27T14:08:30.057Z,5460
2016-08-27T14:09:30.090Z,5444
2016-08-27T14:10:30.830Z,5440
2016-08-27T14:11:30.154Z,5444
2016-08-27T14:12:30.209Z,5440
2016-08-27T14:13:30.236Z,5428
2016-08-27T14:14:30.276Z,5428
2016-08-27T14:15:45.214Z,5428
2016-08-27T14:16:30.339Z,5428
2016-08-27T14:17:30.346Z,5424
2016-08-27T14:18:30.386Z,5416
2016-08-27T14:19:30.430Z,5420
2016-08-27T14:20:30.465Z,5416
2016-08-27T14:21:45.422Z,5408
2016-08-27T14:22:30.526Z,5400
2016-08-27T14:23:30.545Z,5392
2016-08-27T14:24:30.577Z,5376
2016-08-27T14:25:45.556Z,5360
2016-08-27T14:26:45.582Z,5344
2016-08-27T14:27:30.721Z,5344
2016-08-27T14:28:30.728Z,5348
2016-08-27T14:29:30.750Z,5340
2016-08-27T14:30:30.790Z,5344
2016-08-27T14:31:30.816Z,5356
2016-08-27T14:32:45.774Z,5364
2016-08-27T14:33:30.884Z,5352
2016-08-27T14:34:30.926Z,5348
2016-08-27T14:35:31.007Z,5352
2016-08-27T14:36:45.901Z,5324
2016-08-27T14:37:45.964Z,5300